Time;durP1;ratioP1;P1;durP2;ratioP2;P2;SDS_P1;SDS_P2;PMS_P1;PMS_P2;Temp;Humidity;BMP_temperature;BMP_pressure;BME280_temperature;BME280_humidity;BME280_pressure;Samples;Min_cycle;Max_cycle;Signal;HPM_P1;HPM_P2
2021/11/27 00:01:53;;;;;;;0.68;0.68;;;;;;;;;;5014983;28;20030;-94
2021/11/27 00:04:19;;;;;;;0.82;0.80;;;;;;;;;;5022652;28;20022;-94
2021/11/27 00:06:45;;;;;;;0.80;0.50;;;;;;;;;;5014202;28;20037;-95
2021/11/27 00:09:12;;;;;;;0.50;0.50;;;;;;;;;;5016760;28;20022;-95
2021/11/27 00:11:38;;;;;;;0.52;0.50;;;;;;;;;;5009459;28;20054;-93
2021/11/27 00:14:05;;;;;;;1.70;0.52;;;;;;;;;;5015642;28;20018;-93
2021/11/27 00:16:32;;;;;;;1.50;0.60;;;;;;;;;;5014686;28;20056;-95
2021/11/27 00:18:58;;;;;;;0.65;0.65;;;;;;;;;;5023389;28;20454;-95
2021/11/27 00:21:24;;;;;;;0.60;0.60;;;;;;;;;;5013746;28;20117;-94
2021/11/27 00:23:52;;;;;;;1.75;0.57;;;;;;;;;;5009517;28;20097;-95
2021/11/27 00:26:19;;;;;;;2.10;0.80;;;;;;;;;;5016212;28;20034;-95
2021/11/27 00:28:47;;;;;;;;;;;6.20;73.60;;;;;;5021920;28;20101;-94
2021/11/27 00:31:15;;;;;;;3.30;0.93;;;;;;;;;;5027433;28;19906;-95
2021/11/27 00:33:41;;;;;;;1.70;1.13;;;;;;;;;;5021111;28;20029;-94
2021/11/27 00:36:08;;;;;;;0.73;0.73;;;;;;;;;;5014395;28;20163;-94
2021/11/27 00:38:34;;;;;;;0.70;0.70;;;;;;;;;;5013190;28;20030;-95
2021/11/27 00:41:00;;;;;;;0.77;0.63;;;;;;;;;;5026067;28;20879;-94
2021/11/27 00:43:26;;;;;;;0.65;0.60;;;;;;;;;;5014689;28;20025;-94
2021/11/27 00:45:52;;;;;;;0.52;0.52;;;;;;;;;;5014452;28;20061;-95
2021/11/27 00:48:21;;;;;;;0.50;0.50;;;;;;;;;;5017383;28;20034;-95
2021/11/27 00:50:51;;;;;;;1.50;0.50;;;;;;;;;;5017545;28;20044;-95
2021/11/27 00:53:17;;;;;;;0.55;0.52;;;;;;;;;;5020596;28;20376;-95
2021/11/27 00:55:43;;;;;;;1.30;0.70;;;;;;;;;;5020976;28;20030;-94
2021/11/27 00:58:10;;;;;;;0.40;0.40;;;;;;;;;;5014020;28;20701;-94
2021/11/27 01:00:41;;;;;;;0.40;0.40;;;;;;;;;;5028750;28;20030;-94
2021/11/27 01:03:09;;;;;;;0.40;0.40;;;;;;;;;;5016242;28;20026;-94
2021/11/27 01:05:36;;;;;;;1.85;0.68;;;;;;;;;;5027305;28;20072;-94
2021/11/27 01:08:02;;;;;;;1.88;1.08;;;;;;;;;;5014790;28;20022;-94
2021/11/27 01:10:29;;;;;;;1.95;1.05;;;;;;;;;;5022624;28;20088;-94
2021/11/27 01:12:55;;;;;;;2.55;1.77;;;;;;;;;;5016688;28;20498;-94
2021/11/27 01:15:29;;;;;;;2.38;1.20;;;;;;;;;;5018898;28;20116;-93
2021/11/27 01:17:55;;;;;;;0.82;0.82;;;;;;;;;;5015741;28;20029;-95
2021/11/27 01:20:24;;;;;;;1.15;0.95;;;;;;;;;;5024679;28;20034;-95
2021/11/27 01:22:50;;;;;;;1.65;0.98;;;;;;;;;;5023239;28;20025;-94
2021/11/27 01:25:17;;;;;;;0.60;0.60;;;;;;;;;;5021668;28;20029;-94
2021/11/27 01:27:43;;;;;;;0.77;0.77;;;;;;;;;;5015240;28;20092;-95
2021/11/27 01:30:11;;;;;;;2.65;1.00;;;;;;;;;;5002796;28;20026;-93
2021/11/27 01:32:37;;;;;;;0.60;0.60;;;;;;;;;;5015594;28;20030;-94
2021/11/27 01:35:03;;;;;;;0.73;0.55;;;;;;;;;;5000396;28;20375;-94
2021/11/27 01:37:29;;;;;;;2.03;1.17;;;;;;;;;;5033571;28;20025;-93
2021/11/27 01:39:56;;;;;;;0.60;0.60;;;;;;;;;;5031499;28;20029;-94
2021/11/27 01:42:22;;;;;;;0.50;0.50;;;;;;;;;;5034130;28;20030;-94
2021/11/27 01:44:48;;;;;;;0.45;0.45;;;;;;;;;;5017714;28;20053;-95
2021/11/27 01:47:14;;;;;;;2.25;0.60;;;;;;;;;;5014370;28;20021;-94
2021/11/27 01:49:40;;;;;;;0.60;0.60;;;;;;;;;;5025357;28;20050;-95
2021/11/27 01:52:07;;;;;;;0.60;0.60;;;;;;;;;;5010407;28;20083;-94
2021/11/27 01:54:33;;;;;;;0.40;0.40;;;;;;;;;;5015536;28;20487;-94
2021/11/27 01:57:01;;;;;;;0.75;0.75;;;;;;;;;;5015142;28;20528;-94
2021/11/27 01:59:29;;;;;;;0.98;0.60;;;;;;;;;;5014018;28;20030;-94
2021/11/27 02:01:55;;;;;;;;;;;6.70;76.10;;;;;;5019313;28;20506;-94
2021/11/27 02:04:23;;;;;;;1.30;0.80;;;;;;;;;;5027436;28;19914;-94
2021/11/27 02:06:49;;;;;;;0.63;0.63;;;;;;;;;;5021561;28;20083;-95
2021/11/27 02:09:17;;;;;;;1.08;0.77;;;;;;;;;;5015727;28;20021;-93
2021/11/27 02:11:43;;;;;;;1.65;0.60;;;;;;;;;;5020690;28;20030;-93
2021/11/27 02:14:10;;;;;;;2.15;1.27;;;;;;;;;;5014809;28;20050;-95
2021/11/27 02:16:37;;;;;;;0.77;0.75;;;;;;;;;;5016044;28;20108;-95
2021/11/27 02:19:03;;;;;;;0.90;0.88;;;;;;;;;;5024592;28;20246;-94
2021/11/27 02:21:30;;;;;;;0.85;0.80;;;;;;;;;;4995921;28;20488;-95
2021/11/27 02:23:56;;;;;;;1.30;1.13;;;;;;;;;;5025741;28;20029;-94
2021/11/27 02:26:24;;;;;;;0.95;0.73;;;;;;;;;;5020478;28;20128;-95
2021/11/27 02:28:51;;;;;;;0.50;0.50;;;;;;;;;;5022108;28;20034;-95
2021/11/27 02:31:18;;;;;;;;;;;6.80;75.70;;;;;;4995761;28;20029;-93
2021/11/27 02:33:44;;;;;;;1.60;1.42;;;;;;;;;;5000370;28;20409;-95
2021/11/27 02:36:10;;;;;;;0.68;0.60;;;;;;;;;;5030217;28;20125;-94
2021/11/27 02:38:36;;;;;;;0.50;0.50;;;;;;;;;;5021432;28;20022;-94
2021/11/27 02:41:03;;;;;;;2.20;0.95;;;;;;;;;;5010499;28;20042;-95
2021/11/27 02:43:29;;;;;;;0.50;0.50;;;;;;;;;;5009314;28;20037;-94
2021/11/27 02:45:55;;;;;;;0.95;0.70;;;;;;;;;;5014885;28;20121;-94
2021/11/27 02:48:21;;;;;;;0.88;0.82;;;;;;;;;;5019722;28;20103;-94
2021/11/27 02:50:47;;;;;;;4.53;0.82;;;;;;;;;;5020863;28;20123;-94
2021/11/27 02:53:15;;;;;;;1.55;0.60;;;;;;;;;;5021376;28;20018;-93
2021/11/27 02:55:41;;;;;;;0.90;0.50;;;;;;;;;;5024137;28;20120;-93
2021/11/27 02:58:07;;;;;;;1.00;0.60;;;;;;;;;;5015839;28;20018;-94
2021/11/27 03:00:34;;;;;;;1.80;0.73;;;;;;;;;;5014321;28;20034;-94
2021/11/27 03:03:00;;;;;;;0.50;0.50;;;;;;;;;;5015127;28;20049;-95
2021/11/27 03:05:26;;;;;;;0.43;0.43;;;;;;;;;;5012850;28;20030;-94
2021/11/27 03:07:52;;;;;;;2.30;0.47;;;;;;;;;;5031856;28;20032;-94
2021/11/27 03:10:18;;;;;;;0.60;0.60;;;;;;;;;;5014260;28;20029;-93
2021/11/27 03:12:47;;;;;;;0.97;0.87;;;;;;;;;;5014236;28;20026;-94
2021/11/27 03:15:16;;;;;;;1.63;1.38;;;;;;;;;;5020725;28;20076;-94
2021/11/27 03:17:42;;;;;;;0.60;0.60;;;;;;;;;;4995956;28;20037;-93
2021/11/27 03:20:09;;;;;;;1.33;0.70;;;;;;;;;;5015332;28;20022;-93
2021/11/27 03:22:35;;;;;;;0.47;0.47;;;;;;;;;;5013522;28;20030;-93
2021/11/27 03:25:01;;;;;;;0.30;0.30;;;;;;;;;;5019163;28;20030;-93
2021/11/27 03:27:27;;;;;;;4.60;0.43;;;;;;;;;;5013981;28;20521;-93
2021/11/27 03:29:53;;;;;;;0.47;0.47;;;;;;;;;;5025723;28;20025;-94
2021/11/27 03:32:20;;;;;;;0.35;0.35;;;;;;;;;;5018182;28;20030;-94
2021/11/27 03:34:47;;;;;;;1.03;0.70;;;;;;;;;;5012494;28;20076;-95
2021/11/27 03:37:14;;;;;;;0.60;0.60;;;;;;;;;;5020258;28;20033;-95
2021/11/27 03:39:40;;;;;;;1.08;1.00;;;;;;;;;;5016727;28;20030;-93
2021/11/27 03:42:09;;;;;;;1.35;1.25;;;;;;;;;;5013069;28;20034;-94
2021/11/27 03:44:35;;;;;;;1.88;1.15;;;;;;;;;;5013081;28;20529;-94
2021/11/27 03:47:02;;;;;;;0.93;0.90;;;;;;;;;;5026552;28;20041;-93
2021/11/27 03:49:29;;;;;;;0.45;0.45;;;;;;;;;;5027266;28;20046;-92
2021/11/27 03:51:55;;;;;;;2.40;1.05;;;;;;;;;;5026588;28;20033;-94
2021/11/27 03:54:21;;;;;;;1.23;0.70;;;;;;;;;;5013287;28;20025;-94
2021/11/27 03:56:47;;;;;;;0.70;0.60;;;;;;;;;;5016632;28;20420;-92
2021/11/27 03:59:13;;;;;;;0.57;0.40;;;;;;;;;;5012658;28;20095;-93
2021/11/27 04:01:39;;;;;;;0.30;0.30;;;;;;;;;;5019312;28;20041;-95
2021/11/27 04:04:06;;;;;;;0.50;0.50;;;;;;;;;;5011071;28;20026;-95
2021/11/27 04:06:33;;;;;;;0.35;0.35;;;;;;;;;;5029303;28;20120;-95
2021/11/27 04:09:00;;;;;;;1.00;0.50;;;;;;;;;;5012297;28;20030;-96
2021/11/27 04:11:26;;;;;;;0.40;0.40;;;;;;;;;;5015099;28;20034;-93
2021/11/27 04:13:53;;;;;;;0.40;0.40;;;;;;;;;;5011650;28;20549;-95
2021/11/27 04:16:19;;;;;;;0.40;0.40;;;;;;;;;;5025396;28;20022;-94
2021/11/27 04:18:45;;;;;;;2.65;0.57;;;;;;;;;;5025360;28;20030;-95
2021/11/27 04:21:12;;;;;;;0.40;0.40;;;;;;;;;;5009960;28;20022;-94
2021/11/27 04:23:38;;;;;;;0.63;0.63;;;;;;;;;;5010166;28;20053;-93
2021/11/27 04:26:04;;;;;;;0.38;0.38;;;;;;;;;;5018281;28;20091;-95
2021/11/27 04:28:31;;;;;;;0.63;0.63;;;;;;;;;;5011231;28;20104;-94
2021/11/27 04:30:57;;;;;;;0.50;0.50;;;;;;;;;;5016493;28;20028;-94
2021/11/27 04:33:23;;;;;;;0.73;0.73;;;;;;;;;;5013266;28;20645;-95
2021/11/27 04:35:49;;;;;;;0.75;0.75;;;;;;;;;;5016554;28;20400;-94
2021/11/27 04:38:15;;;;;;;0.80;0.80;;;;;;;;;;5019773;28;20029;-95
2021/11/27 04:40:41;;;;;;;1.02;0.80;;;;;;;;;;5018847;28;20037;-94
2021/11/27 04:43:07;;;;;;;1.13;0.77;;;;;;;;;;5028615;28;20033;-95
2021/11/27 04:45:34;;;;;;;0.77;0.65;;;;;;;;;;5017026;28;20030;-94
2021/11/27 04:48:00;;;;;;;0.50;0.50;;;;;;;;;;4999784;28;20124;-94
2021/11/27 04:50:28;;;;;;;0.40;0.40;;;;;;;;;;4997935;28;20046;-93
2021/11/27 04:52:54;;;;;;;0.65;0.50;;;;;;;;;;4978184;28;20023;-94
2021/11/27 04:55:20;;;;;;;0.95;0.93;;;;;;;;;;4988097;28;20035;-94
2021/11/27 04:57:46;;;;;;;0.50;0.50;;;;;;;;;;4986046;28;20023;-95
2021/11/27 05:00:18;;;;;;;0.50;0.50;;;;;;;;;;4995257;28;20076;-94
2021/11/27 05:02:44;;;;;;;0.98;0.50;;;;;;;;;;4981581;28;21395;-94
2021/11/27 05:05:10;;;;;;;0.40;0.40;;;;;;;;;;4990139;28;20022;-93
2021/11/27 05:07:36;;;;;;;0.57;0.57;;;;;;;;;;4984638;28;20388;-94
2021/11/27 05:10:02;;;;;;;0.50;0.50;;;;;;;;;;4978184;28;20035;-94
2021/11/27 05:12:28;;;;;;;0.43;0.43;;;;;;;;;;4997209;28;20022;-93
2021/11/27 05:14:54;;;;;;;0.60;0.50;;;;;;;;;;4978048;28;20089;-94
2021/11/27 05:17:20;;;;;;;0.52;0.52;;;;;;;;;;4977695;28;20041;-95
2021/11/27 05:19:46;;;;;;;1.38;0.98;;;;;;;;;;4977709;28;20031;-94
2021/11/27 05:22:13;;;;;;;1.10;0.68;;;;;;;;;;4973356;28;20047;-94
2021/11/27 05:24:44;;;;;;;0.50;0.40;;;;;;;;;;4995325;28;20026;-94
2021/11/27 05:27:20;;;;;;;0.70;0.70;;;;;;;;;;4992145;28;20065;-95
2021/11/27 05:29:48;;;;;;;0.80;0.80;;;;;;;;;;4991024;28;20038;-94
2021/11/27 05:32:25;;;;;;;0.68;0.68;;;;;;;;;;4970236;28;20523;-93
2021/11/27 05:34:52;;;;;;;0.93;0.70;;;;;;;;;;4983271;28;20065;-94
2021/11/27 05:37:19;;;;;;;0.43;0.43;;;;;;;;;;4990974;28;20031;-95
2021/11/27 05:39:45;;;;;;;0.47;0.47;;;;;;;;;;4990411;28;20046;-93
2021/11/27 05:42:12;;;;;;;0.63;0.63;;;;;;;;;;4976512;28;20045;-93
2021/11/27 05:44:38;;;;;;;0.40;0.40;;;;;;;;;;4987332;28;20018;-93
2021/11/27 05:47:05;;;;;;;0.38;0.38;;;;;;;;;;4982216;28;20055;-94
2021/11/27 05:49:31;;;;;;;0.50;0.50;;;;;;;;;;4999194;28;20445;-93
2021/11/27 05:51:57;;;;;;;0.50;0.50;;;;;;;;;;5015449;28;20026;-94
2021/11/27 05:54:23;;;;;;;0.65;0.65;;;;;;;;;;5021945;28;20617;-94
2021/11/27 05:56:49;;;;;;;0.77;0.70;;;;;;;;;;5016125;28;20068;-94
2021/11/27 05:59:15;;;;;;;0.93;0.93;;;;;;;;;;5019750;28;20083;-94
2021/11/27 06:01:41;;;;;;;0.50;0.50;;;;;;;;;;5024844;28;20026;-95
2021/11/27 06:04:07;;;;;;;0.88;0.70;;;;;;;;;;5017252;28;20036;-94
2021/11/27 06:06:33;;;;;;;1.17;0.77;;;;;;;;;;5029587;28;20029;-94
2021/11/27 06:09:00;;;;;;;3.70;0.75;;;;;;;;;;4999020;28;20031;-95
2021/11/27 06:11:26;;;;;;;2.33;1.17;;;;;;;;;;5016278;28;20099;-96
2021/11/27 06:13:52;;;;;;;1.05;0.55;;;;;;;;;;5015051;28;20026;-94
2021/11/27 06:16:18;;;;;;;1.48;0.90;;;;;;;;;;5027655;28;20498;-94
2021/11/27 06:18:44;;;;;;;1.42;1.13;;;;;;;;;;5015638;28;20491;-94
2021/11/27 06:21:10;;;;;;;0.65;0.65;;;;;;;;;;5030478;28;20057;-94
2021/11/27 06:23:37;;;;;;;1.00;0.93;;;;;;;;;;5018332;28;20029;-95
2021/11/27 06:26:03;;;;;;;1.13;0.90;;;;;;;;;;5014731;28;20037;-94
2021/11/27 06:28:31;;;;;;;1.08;0.98;;;;;;;;;;5014605;28;20026;-95
2021/11/27 06:30:57;;;;;;;1.67;1.20;;;;;;;;;;5017103;28;20037;-93
2021/11/27 06:33:23;;;;;;;0.50;0.50;;;;;;;;;;5029206;28;20037;-95
2021/11/27 06:35:49;;;;;;;0.68;0.60;;;;;;;;;;5024801;28;20127;-94
2021/11/27 06:38:15;;;;;;;0.73;0.70;;;;;;;;;;5021995;28;20022;-94
2021/11/27 06:40:41;;;;;;;0.50;0.50;;;;;;;;;;5018558;28;20033;-95
2021/11/27 06:43:07;;;;;;;0.50;0.50;;;;;;;;;;5025889;28;20030;-93
2021/11/27 06:45:34;;;;;;;0.60;0.60;;;;;;;;;;4994941;28;20210;-95
2021/11/27 06:48:00;;;;;;;0.47;0.47;;;;;;;;;;5032744;28;20041;-93
2021/11/27 06:50:26;;;;;;;2.90;1.50;;;;;;;;;;5018789;28;20049;-95
2021/11/27 06:52:52;;;;;;;4.07;1.52;;;;;;;;;;5019096;28;20423;-94
2021/11/27 06:55:19;;;;;;;6.35;2.88;;;;;;;;;;5015353;28;20033;-95
2021/11/27 06:57:45;;;;;;;1.08;0.98;;;;;;;;;;5031434;28;20025;-94
2021/11/27 07:00:11;;;;;;;3.15;0.82;;;;;;;;;;5015882;28;20034;-96
2021/11/27 07:02:37;;;;;;;0.85;0.60;;;;;;;;;;5014449;28;20050;-95
2021/11/27 07:05:03;;;;;;;1.15;0.60;;;;;;;;;;5014898;28;20026;-95
2021/11/27 07:07:30;;;;;;;0.63;0.63;;;;;;;;;;4998855;28;20038;-94
2021/11/27 07:09:55;;;;;;;0.88;0.85;;;;;;;;;;5014289;28;20030;-94
2021/11/27 07:12:22;;;;;;;2.28;1.42;;;;;;;;;;5020917;28;20041;-94
2021/11/27 07:14:48;;;;;;;4.50;2.58;;;;;;;;;;5014293;28;20049;-95
2021/11/27 07:17:14;;;;;;;1.15;1.05;;;;;;;;;;5014369;28;20034;-95
2021/11/27 07:19:41;;;;;;;3.30;1.92;;;;;;;;;;5013498;28;20014;-96
2021/11/27 07:22:08;;;;;;;3.00;1.42;;;;;;;;;;5015473;28;20038;-94
2021/11/27 07:24:34;;;;;;;0.80;0.80;;;;;;;;;;5023976;28;20033;-95
2021/11/27 07:27:06;;;;;;;;;;;;;;;;;;5008082;28;20046;-95
2021/11/27 07:29:38;;;;;;;0.70;0.70;;;;;;;;;;5014193;28;19976;-95
2021/11/27 07:32:05;;;;;;;0.75;0.50;;;;;;;;;;5014374;28;20056;-93
2021/11/27 07:34:31;;;;;;;0.57;0.57;;;;;;;;;;5014616;28;20045;-95
2021/11/27 07:36:57;;;;;;;0.57;0.52;;;;;;;;;;5015199;28;20033;-94
2021/11/27 07:39:23;;;;;;;0.40;0.40;;;;;;;;;;5034085;28;20486;-94
2021/11/27 07:41:49;;;;;;;0.80;0.80;;;;;;;;;;5016716;28;20053;-95
2021/11/27 07:44:15;;;;;;;0.50;0.50;;;;;;;;;;5021745;28;20022;-96
2021/11/27 07:46:42;;;;;;;0.68;0.68;;;;;;;;;;5007847;28;20042;-94
2021/11/27 07:49:08;;;;;;;0.45;0.45;;;;;;;;;;5023952;28;20066;-94
2021/11/27 07:51:34;;;;;;;0.80;0.80;;;;;;;;;;5013559;28;20026;-95
2021/11/27 07:54:01;;;;;;;0.85;0.80;;;;;;;;;;5015144;28;20026;-94
2021/11/27 07:56:27;;;;;;;0.63;0.63;;;;;;;;;;5013002;28;20050;-94
2021/11/27 07:58:53;;;;;;;1.00;0.90;;;;;;;;;;5021400;28;20017;-95
2021/11/27 08:01:19;;;;;;;2.47;1.13;;;;;;;;;;5019364;28;20034;-95
2021/11/27 08:03:46;;;;;;;2.72;1.05;;;;;;;;;;5020379;28;20018;-95
2021/11/27 08:06:12;;;;;;;5.47;1.73;;;;;;;;;;5014465;28;20560;-95
2021/11/27 08:08:38;;;;;;;2.95;1.30;;;;;;;;;;5015689;28;20076;-94
2021/11/27 08:11:05;;;;;;;4.72;2.92;;;;;;;;;;5027208;28;20053;-95
2021/11/27 08:13:31;;;;;;;4.95;2.05;;;;;;;;;;5033136;28;20509;-95
2021/11/27 08:15:57;;;;;;;3.88;1.60;;;;;;;;;;5034796;28;20043;-96
2021/11/27 08:18:23;;;;;;;0.90;0.80;;;;;;;;;;5018547;28;20037;-95
2021/11/27 08:20:50;;;;;;;2.17;1.10;;;;;;;;;;5015439;28;20022;-94
2021/11/27 08:23:19;;;;;;;5.43;2.22;;;;;;;;;;5016975;28;20040;-93
2021/11/27 08:25:46;;;;;;;2.58;1.30;;;;;;;;;;5007613;28;20042;-93
2021/11/27 08:28:12;;;;;;;4.07;2.13;;;;;;;;;;5002121;28;20026;-94
2021/11/27 08:30:38;;;;;;;2.58;2.38;;;;;;;;;;5047038;28;20041;-95
2021/11/27 08:33:04;;;;;;;5.68;2.22;;;;;;;;;;4997635;28;20038;-95
2021/11/27 08:35:30;;;;;;;6.72;4.35;;;;;;;;;;5007791;28;20018;-93
2021/11/27 08:37:56;;;;;;;7.13;1.52;;;;;;;;;;5007548;28;20029;-93
2021/11/27 08:40:22;;;;;;;8.85;1.27;;;;;;;;;;5018581;28;20022;-94
2021/11/27 08:42:48;;;;;;;3.13;1.48;;;;;;;;;;5016608;28;20034;-94
2021/11/27 08:45:15;;;;;;;4.47;2.42;;;;;;;;;;5018560;28;20030;-94
2021/11/27 08:47:41;;;;;;;2.72;1.85;;;;;;;;;;5018201;28;20044;-94
2021/11/27 08:50:08;;;;;;;2.78;1.67;;;;;;;;;;5007731;28;20124;-95
2021/11/27 08:52:34;;;;;;;3.55;1.58;;;;;;;;;;5017020;28;20025;-95
2021/11/27 08:55:00;;;;;;;4.22;1.65;;;;;;;;;;5016894;28;20018;-95
2021/11/27 08:57:26;;;;;;;3.03;2.20;;;;;;;;;;5034789;28;20030;-93
2021/11/27 08:59:52;;;;;;;3.50;1.10;;;;;;;;;;5032877;28;20029;-93
2021/11/27 09:02:19;;;;;;;4.95;2.25;;;;;;;;;;5026346;28;20107;-93
2021/11/27 09:04:45;;;;;;;5.27;3.07;;;;;;;;;;5016492;28;20073;-95
2021/11/27 09:07:12;;;;;;;5.15;2.00;;;;;;;;;;5022462;28;20058;-93
2021/11/27 09:09:38;;;;;;;5.05;2.83;;;;;;;;;;5016451;28;20032;-93
2021/11/27 09:12:05;;;;;;;4.32;1.83;;;;;;;;;;5030433;28;20022;-94
2021/11/27 09:14:32;;;;;;;4.50;2.38;;;;;;;;;;5018104;28;20036;-94
2021/11/27 09:16:58;;;;;;;3.42;2.15;;;;;;;;;;5012468;28;20062;-93
2021/11/27 09:19:24;;;;;;;2.20;1.35;;;;;;;;;;5014824;28;20499;-94
2021/11/27 09:21:50;;;;;;;1.35;1.05;;;;;;;;;;5013589;28;20064;-95
2021/11/27 09:24:16;;;;;;;3.03;0.90;;;;;;;;;;5014811;28;20029;-93
2021/11/27 09:26:42;;;;;;;2.35;1.60;;;;;;;;;;5002855;28;20061;-93
2021/11/27 09:29:10;;;;;;;1.60;1.45;;;;;;;;;;5014185;28;20068;-93
2021/11/27 09:31:39;;;;;;;1.27;1.17;;;;;;;;;;5017801;28;20025;-93
2021/11/27 09:34:05;;;;;;;2.58;1.65;;;;;;;;;;5022418;28;20045;-94
2021/11/27 09:36:31;;;;;;;3.90;1.00;;;;;;;;;;5011567;28;20053;-94
2021/11/27 09:38:57;;;;;;;4.07;1.60;;;;;;;;;;5022573;28;20548;-94
2021/11/27 09:41:28;;;;;;;3.55;1.55;;;;;;;;;;5024537;28;20025;-93
2021/11/27 09:43:59;;;;;;;3.05;2.15;;;;;;;;;;5022998;28;20030;-92
2021/11/27 09:46:27;;;;;;;4.10;1.20;;;;;;;;;;5032492;28;20044;-94
2021/11/27 09:48:55;;;;;;;6.70;1.50;;;;;;;;;;5031698;28;20037;-93
2021/11/27 09:51:21;;;;;;;;;;;14.90;41.20;;;;;;5016511;28;20533;-92
2021/11/27 09:53:48;;;;;;;2.33;0.88;;;;;;;;;;5018116;28;20381;-92
2021/11/27 09:56:16;;;;;;;1.90;1.52;;;13.90;41.60;;;;;;5008113;28;20041;-92
2021/11/27 09:58:42;;;;;;;2.35;1.42;;;;;;;;;;5014975;28;20080;-93
2021/11/27 10:01:08;;;;;;;1.77;0.98;;;;;;;;;;5010242;28;20030;-96
2021/11/27 10:03:35;;;;;;;0.80;0.80;;;;;;;;;;5031069;28;20025;-94
2021/11/27 10:06:01;;;;;;;10.75;1.15;;;;;;;;;;5015056;28;20066;-94
2021/11/27 10:08:27;;;;;;;0.65;0.65;;;;;;;;;;5015612;28;20037;-94
2021/11/27 10:10:53;;;;;;;0.93;0.68;;;;;;;;;;4997117;28;20026;-95
2021/11/27 10:13:20;;;;;;;0.80;0.60;;;;;;;;;;5017095;28;20026;-92
2021/11/27 10:15:47;;;;;;;1.35;0.77;;;;;;;;;;5015616;28;20029;-95
2021/11/27 10:18:20;;;;;;;3.83;0.68;;;;;;;;;;5015672;28;20026;-94
2021/11/27 10:20:47;;;;;;;0.88;0.88;;;;;;;;;;5026906;28;20443;-94
2021/11/27 10:23:13;;;;;;;2.15;1.02;;;;;;;;;;5021623;28;20391;-94
2021/11/27 10:25:41;;;;;;;1.00;0.85;;;;;;;;;;5014511;28;20075;-94
2021/11/27 10:28:09;;;;;;;;;;;10.80;48.80;;;;;;5016819;28;20060;-93
2021/11/27 10:30:40;;;;;;;2.47;0.80;;;;;;;;;;5014729;28;19916;-93
2021/11/27 10:33:06;;;;;;;1.15;0.95;;;;;;;;;;5016422;28;20021;-93
2021/11/27 10:35:32;;;;;;;0.95;0.60;;;;;;;;;;5003228;28;20061;-95
2021/11/27 10:37:58;;;;;;;0.98;0.90;;;;;;;;;;5005528;28;20120;-93
2021/11/27 10:40:26;;;;;;;5.10;1.35;;;10.60;51.40;;;;;;5022202;28;20034;-94
2021/11/27 10:42:58;;;;;;;2.30;0.98;;;10.80;50.40;;;;;;5013085;28;20441;-93
2021/11/27 10:45:25;;;;;;;2.75;1.27;;;;;;;;;;5031389;28;20042;-96
2021/11/27 10:47:52;;;;;;;1.63;1.20;;;;;;;;;;5015845;28;20030;-93
2021/11/27 10:50:20;;;;;;;5.87;1.83;;;10.80;47.60;;;;;;5014668;28;20506;-93
2021/11/27 10:52:48;;;;;;;4.97;3.38;;;;;;;;;;5014225;28;20037;-94
2021/11/27 10:55:16;;;;;;;0.65;0.65;;;;;;;;;;5017674;28;20026;-92
2021/11/27 10:57:43;;;;;;;1.75;1.42;;;;;;;;;;5014180;28;20041;-94
2021/11/27 11:00:09;;;;;;;4.10;2.40;;;;;;;;;;5020257;28;20025;-94
2021/11/27 11:02:37;;;;;;;2.25;1.90;;;;;;;;;;5017751;28;20050;-94
2021/11/27 11:05:05;;;;;;;3.33;1.70;;;;;;;;;;5017347;28;20018;-94
2021/11/27 11:07:31;;;;;;;3.78;1.67;;;;;;;;;;5014136;28;20039;-93
2021/11/27 11:10:00;;;;;;;3.08;1.17;;;;;;;;;;5014986;28;20049;-92
2021/11/27 11:12:34;;;;;;;7.53;2.10;;;;;;;;;;5025808;28;20025;-93
2021/11/27 11:15:26;;;;;;;2.42;1.02;;;;;;;;;;5010767;28;20026;-93
2021/11/27 11:17:54;;;;;;;1.35;1.08;;;;;;;;;;4994641;28;20038;-95
2021/11/27 11:20:25;;;;;;;2.13;0.90;;;;;;;;;;5016304;28;20026;-93
2021/11/27 11:22:58;;;;;;;4.70;3.13;;;;;;;;;;5013174;28;20499;-95
2021/11/27 11:25:24;;;;;;;10.63;5.65;;;;;;;;;;5013352;28;20034;-92
2021/11/27 11:27:50;;;;;;;3.53;2.75;;;;;;;;;;5012396;28;20491;-94
2021/11/27 11:30:23;;;;;;;0.90;0.90;;;;;;;;;;5015576;28;20025;-93
2021/11/27 11:32:50;;;;;;;1.05;1.00;;;;;;;;;;5012894;28;20038;-93
2021/11/27 11:35:16;;;;;;;1.67;1.10;;;;;;;;;;5014772;28;20091;-92
2021/11/27 11:37:43;;;;;;;0.47;0.47;;;;;;;;;;5013378;28;20068;-94
2021/11/27 11:40:09;;;;;;;0.40;0.40;;;;;;;;;;5012882;28;20117;-93
2021/11/27 11:42:35;;;;;;;1.50;1.40;;;;;;;;;;5013637;28;20022;-94
2021/11/27 11:45:02;;;;;;;1.10;1.00;;;;;;;;;;4992057;28;20293;-94
2021/11/27 11:47:28;;;;;;;1.80;0.85;;;;;;;;;;5014111;28;20030;-94
2021/11/27 11:49:55;;;;;;;1.60;0.75;;;;;;;;;;5004528;28;20054;-93
2021/11/27 11:52:35;;;;;;;0.88;0.82;;;;;;;;;;5012570;28;20034;-93
2021/11/27 11:55:11;;;;;;;0.88;0.75;;;11.30;42.90;;;;;;5012158;28;20034;-93
2021/11/27 11:57:47;;;;;;;0.65;0.65;;;;;;;;;;5024211;28;20494;-94
2021/11/27 12:00:19;;;;;;;1.15;1.00;;;;;;;;;;4993635;28;20109;-92
2021/11/27 12:02:46;;;;;;;8.50;0.98;;;;;;;;;;5012489;28;20164;-93
2021/11/27 12:05:14;;;;;;;0.70;0.70;;;;;;;;;;5012419;28;20042;-93
2021/11/27 12:07:44;;;;;;;0.73;0.57;;;;;;;;;;4996866;28;20034;-94
2021/11/27 12:10:17;;;;;;;0.85;0.82;;;;;;;;;;5027627;28;20037;-93
2021/11/27 12:12:43;;;;;;;0.73;0.60;;;;;;;;;;5028123;28;20045;-94
2021/11/27 12:15:10;;;;;;;1.77;1.52;;;;;;;;;;5002979;28;20546;-92
2021/11/27 12:18:09;;;;;;;1.83;1.20;;;11.60;41.40;;;;;;5024889;28;20480;-92
2021/11/27 12:20:48;;;;;;;1.15;0.80;;;;;;;;;;5015875;28;20022;-93
2021/11/27 12:23:31;;;;;;;5.70;1.42;;;;;;;;;;5006643;28;20022;-93
2021/11/27 12:26:07;;;;;;;4.43;0.90;;;;;;;;;;5003417;28;20042;-93
2021/11/27 12:28:51;;;;;;;2.40;0.68;;;;;;;;;;5006042;28;20034;-93
2021/11/27 12:31:22;;;;;;;1.40;0.68;;;;;;;;;;5012478;28;20038;-92
2021/11/27 12:34:30;;;;;;;6.63;1.08;;;12.30;37.10;;;;;;5014134;28;20026;-93
2021/11/27 12:36:56;;;;;;;1.77;0.63;;;;;;;;;;4972185;28;20125;-93
2021/11/27 12:39:22;;;;;;;1.35;1.02;;;;;;;;;;4972973;28;20042;-94
2021/11/27 12:41:48;;;;;;;0.85;0.80;;;;;;;;;;4971906;28;20433;-93
2021/11/27 12:44:21;;;;;;;0.70;0.63;;;;;;;;;;4974426;28;20038;-93
2021/11/27 12:46:50;;;;;;;0.63;0.57;;;;;;;;;;4982078;28;20114;-94
2021/11/27 12:49:30;;;;;;;2.15;0.80;;;;;;;;;;4975685;28;20054;-92
2021/11/27 12:52:21;;;;;;;1.30;0.63;;;;;;;;;;4971668;28;20045;-93
2021/11/27 12:54:54;;;;;;;0.70;0.70;;;;;;;;;;4986539;28;20074;-94
2021/11/27 12:57:20;;;;;;;1.63;1.13;;;;;;;;;;4972874;28;20047;-94
2021/11/27 12:59:48;;;;;;;1.88;1.20;;;;;;;;;;4992689;28;20073;-93
2021/11/27 13:02:17;;;;;;;;;;;10.60;37.90;;;;;;4982584;28;20069;-93
2021/11/27 13:04:43;;;;;;;0.70;0.70;;;;;;;;;;4974639;28;19956;-95
2021/11/27 13:07:10;;;;;;;0.60;0.60;;;;;;;;;;4956228;28;20087;-94
2021/11/27 13:09:36;;;;;;;1.42;1.33;;;;;;;;;;4974204;28;20019;-92
2021/11/27 13:12:14;;;;;;;1.45;1.05;;;;;;;;;;4982727;28;20496;-93
2021/11/27 13:14:40;;;;;;;1.15;1.05;;;;;;;;;;5021923;28;20371;-93
2021/11/27 13:17:08;;;;;;;4.55;1.70;;;;;;;;;;5022821;28;20025;-94
2021/11/27 13:19:36;;;;;;;11.70;3.63;;;;;;;;;;5021277;28;20410;-94
2021/11/27 13:22:05;;;;;;;1.85;1.15;;;;;;;;;;5015798;28;20037;-92
2021/11/27 13:24:32;;;;;;;5.78;2.25;;;10.00;39.70;;;;;;5022822;28;20021;-94
2021/11/27 13:26:58;;;;;;;4.20;1.75;;;;;;;;;;5015020;28;20120;-92
2021/11/27 13:29:28;;;;;;;4.88;2.35;;;;;;;;;;5014365;28;20037;-94
2021/11/27 13:31:54;;;;;;;11.75;3.80;;;;;;;;;;5015481;28;20030;-92
2021/11/27 13:34:22;;;;;;;3.00;1.65;;;;;;;;;;5019918;28;20029;-94
2021/11/27 13:36:49;;;;;;;2.47;1.35;;;;;;;;;;5016480;28;20028;-93
2021/11/27 13:39:29;;;;;;;6.97;2.33;;;;;;;;;;5015052;28;20034;-91
2021/11/27 13:42:07;;;;;;;3.97;2.25;;;;;;;;;;5022528;28;20030;-93
2021/11/27 13:44:41;;;;;;;4.32;1.80;;;;;;;;;;5023314;28;20091;-92
2021/11/27 13:47:11;;;;;;;6.38;2.20;;;10.50;41.50;;;;;;5022576;28;20041;-94
2021/11/27 13:49:39;;;;;;;3.13;1.15;;;10.50;41.10;;;;;;5031150;28;20104;-93
2021/11/27 13:52:28;;;;;;;1.67;1.08;;;10.30;41.10;;;;;;5026711;28;20030;-94
2021/11/27 13:54:55;;;;;;;0.85;0.85;;;;;;;;;;5014137;28;20025;-92
2021/11/27 13:57:22;;;;;;;1.10;0.98;;;;;;;;;;5015155;28;20053;-94
2021/11/27 13:59:48;;;;;;;2.33;0.85;;;;;;;;;;5014250;28;20032;-92
2021/11/27 14:02:15;;;;;;;5.78;1.38;;;;;;;;;;5015259;28;20084;-94
2021/11/27 14:04:43;;;;;;;8.77;2.80;;;10.70;40.40;;;;;;5015754;28;20049;-95
2021/11/27 14:07:10;;;;;;;12.73;4.03;;;;;;;;;;5016717;28;20041;-92
2021/11/27 14:09:53;;;;;;;5.55;2.92;;;;;;;;;;5013767;28;20438;-92
2021/11/27 14:12:34;;;;;;;3.92;1.92;;;;;;;;;;5016863;28;20038;-93
2021/11/27 14:15:07;;;;;;;4.85;1.88;;;;;;;;;;5014813;28;20022;-93
2021/11/27 14:17:33;;;;;;;6.95;2.45;;;;;;;;;;5005228;28;20021;-94
2021/11/27 14:20:16;;;;;;;2.65;1.08;;;;;;;;;;5023921;28;20036;-95
2021/11/27 14:23:09;;;;;;;3.80;2.33;;;;;;;;;;5019567;28;20037;-93
2021/11/27 14:25:36;;;;;;;5.70;1.98;;;;;;;;;;5013099;28;20062;-93
2021/11/27 14:28:09;;;;;;;0.80;0.80;;;;;;;;;;5014446;28;20026;-93
2021/11/27 14:30:45;;;;;;;1.30;0.75;;;;;;;;;;5014974;28;20038;-95
2021/11/27 14:33:21;;;;;;;1.30;0.93;;;;;;;;;;5002560;28;20041;-92
2021/11/27 14:36:03;;;;;;;1.42;0.93;;;;;;;;;;5014479;28;20036;-93
2021/11/27 14:38:39;;;;;;;1.88;1.30;;;;;;;;;;5016352;28;20033;-93
2021/11/27 14:41:10;;;;;;;6.43;1.45;;;;;;;;;;5016051;28;20088;-93
2021/11/27 14:43:53;;;;;;;3.13;2.03;;;;;;;;;;5001834;28;20497;-93